sensor_id;sensor_type;location;lat;lon;timestamp;temperature;humidity
39347;DHT22;26262;49.836;6.632;2023-06-05T00:01:32;11.80;99.90
39347;DHT22;26262;49.836;6.632;2023-06-05T00:03:59;11.70;99.90
39347;DHT22;26262;49.836;6.632;2023-06-05T00:06:25;11.60;99.90
39347;DHT22;26262;49.836;6.632;2023-06-05T00:08:50;11.70;99.90
39347;DHT22;26262;49.836;6.632;2023-06-05T00:11:16;11.50;99.90
39347;DHT22;26262;49.836;6.632;2023-06-05T00:13:42;11.20;99.90
39347;DHT22;26262;49.836;6.632;2023-06-05T00:16:07;11.10;99.90
39347;DHT22;26262;49.836;6.632;2023-06-05T00:18:33;10.80;99.90
39347;DHT22;26262;49.836;6.632;2023-06-05T00:20:59;10.70;99.90
39347;DHT22;26262;49.836;6.632;2023-06-05T00:23:24;10.90;99.90
39347;DHT22;26262;49.836;6.632;2023-06-05T00:25:50;10.70;99.90
39347;DHT22;26262;49.836;6.632;2023-06-05T00:28:15;10.30;99.90
39347;DHT22;26262;49.836;6.632;2023-06-05T00:30:41;10.50;99.90
39347;DHT22;26262;49.836;6.632;2023-06-05T00:33:06;10.40;99.90
39347;DHT22;26262;49.836;6.632;2023-06-05T00:35:32;10.40;99.90
39347;DHT22;26262;49.836;6.632;2023-06-05T00:37:58;10.60;99.90
39347;DHT22;26262;49.836;6.632;2023-06-05T00:40:23;10.80;99.90
39347;DHT22;26262;49.836;6.632;2023-06-05T00:42:49;11.00;99.90
39347;DHT22;26262;49.836;6.632;2023-06-05T00:45:15;10.90;99.90
39347;DHT22;26262;49.836;6.632;2023-06-05T00:47:40;10.80;99.90
39347;DHT22;26262;49.836;6.632;2023-06-05T00:50:07;10.80;99.90
39347;DHT22;26262;49.836;6.632;2023-06-05T00:52:33;10.40;99.90
39347;DHT22;26262;49.836;6.632;2023-06-05T00:55:01;10.60;99.90
39347;DHT22;26262;49.836;6.632;2023-06-05T00:57:27;10.20;99.90
39347;DHT22;26262;49.836;6.632;2023-06-05T00:59:54;10.00;99.90
39347;DHT22;26262;49.836;6.632;2023-06-05T01:02:20;10.30;99.90
39347;DHT22;26262;49.836;6.632;2023-06-05T01:04:46;10.40;99.90
39347;DHT22;26262;49.836;6.632;2023-06-05T01:07:13;10.40;99.90
39347;DHT22;26262;49.836;6.632;2023-06-05T01:09:40;10.60;99.90
39347;DHT22;26262;49.836;6.632;2023-06-05T01:12:20;10.60;99.90
39347;DHT22;26262;49.836;6.632;2023-06-05T01:14:48;10.60;99.90
39347;DHT22;26262;49.836;6.632;2023-06-05T01:17:16;10.60;99.90
39347;DHT22;26262;49.836;6.632;2023-06-05T01:19:44;10.30;99.90
39347;DHT22;26262;49.836;6.632;2023-06-05T01:22:11;10.30;99.90
39347;DHT22;26262;49.836;6.632;2023-06-05T01:24:38;10.40;99.90
39347;DHT22;26262;49.836;6.632;2023-06-05T01:33:04;10.20;99.90
39347;DHT22;26262;49.836;6.632;2023-06-05T01:35:32;10.30;99.90
39347;DHT22;26262;49.836;6.632;2023-06-05T01:38:02;10.40;99.90
39347;DHT22;26262;49.836;6.632;2023-06-05T01:40:31;10.40;99.90
39347;DHT22;26262;49.836;6.632;2023-06-05T01:42:57;10.40;99.90
39347;DHT22;26262;49.836;6.632;2023-06-05T01:45:25;10.50;99.90
39347;DHT22;26262;49.836;6.632;2023-06-05T01:47:51;10.40;99.90
39347;DHT22;26262;49.836;6.632;2023-06-05T01:50:18;10.20;99.90
39347;DHT22;26262;49.836;6.632;2023-06-05T01:52:45;10.00;99.90
39347;DHT22;26262;49.836;6.632;2023-06-05T01:55:18;10.00;99.90
39347;DHT22;26262;49.836;6.632;2023-06-05T01:57:45;10.10;99.90
39347;DHT22;26262;49.836;6.632;2023-06-05T02:00:12;10.20;99.90
39347;DHT22;26262;49.836;6.632;2023-06-05T02:02:42;10.00;99.90
39347;DHT22;26262;49.836;6.632;2023-06-05T02:05:09;9.90;99.90
39347;DHT22;26262;49.836;6.632;2023-06-05T02:07:39;9.80;99.90
39347;DHT22;26262;49.836;6.632;2023-06-05T02:10:06;10.00;99.90
39347;DHT22;26262;49.836;6.632;2023-06-05T02:12:32;10.10;99.90
39347;DHT22;26262;49.836;6.632;2023-06-05T02:14:59;9.90;99.90
39347;DHT22;26262;49.836;6.632;2023-06-05T02:17:25;9.90;99.90
39347;DHT22;26262;49.836;6.632;2023-06-05T02:19:51;9.80;99.90
39347;DHT22;26262;49.836;6.632;2023-06-05T02:22:17;9.70;99.90
39347;DHT22;26262;49.836;6.632;2023-06-05T02:24:43;9.70;99.90
39347;DHT22;26262;49.836;6.632;2023-06-05T02:27:09;9.80;99.90
39347;DHT22;26262;49.836;6.632;2023-06-05T02:29:38;9.80;99.90
39347;DHT22;26262;49.836;6.632;2023-06-05T02:32:05;9.90;99.90
39347;DHT22;26262;49.836;6.632;2023-06-05T02:34:31;9.90;99.90
39347;DHT22;26262;49.836;6.632;2023-06-05T02:37:00;9.90;99.90
39347;DHT22;26262;49.836;6.632;2023-06-05T02:39:26;9.40;99.90
39347;DHT22;26262;49.836;6.632;2023-06-05T02:41:53;9.50;99.90
39347;DHT22;26262;49.836;6.632;2023-06-05T02:44:18;9.40;99.90
39347;DHT22;26262;49.836;6.632;2023-06-05T02:46:44;9.30;99.90
39347;DHT22;26262;49.836;6.632;2023-06-05T02:49:09;9.40;99.90
39347;DHT22;26262;49.836;6.632;2023-06-05T02:51:35;9.40;99.90
39347;DHT22;26262;49.836;6.632;2023-06-05T02:54:01;9.30;99.90
39347;DHT22;26262;49.836;6.632;2023-06-05T02:56:26;9.50;99.90
39347;DHT22;26262;49.836;6.632;2023-06-05T02:58:53;9.20;99.90
39347;DHT22;26262;49.836;6.632;2023-06-05T03:01:19;9.10;99.90
39347;DHT22;26262;49.836;6.632;2023-06-05T03:03:46;9.20;99.90
39347;DHT22;26262;49.836;6.632;2023-06-05T03:06:14;9.20;99.90
39347;DHT22;26262;49.836;6.632;2023-06-05T03:08:42;9.20;99.90
39347;DHT22;26262;49.836;6.632;2023-06-05T03:11:08;9.20;99.90
39347;DHT22;26262;49.836;6.632;2023-06-05T03:13:34;9.20;99.90
39347;DHT22;26262;49.836;6.632;2023-06-05T03:16:00;9.30;99.90
39347;DHT22;26262;49.836;6.632;2023-06-05T03:18:29;9.30;99.90
39347;DHT22;26262;49.836;6.632;2023-06-05T03:20:56;9.20;99.90
39347;DHT22;26262;49.836;6.632;2023-06-05T03:23:26;9.20;99.90
39347;DHT22;26262;49.836;6.632;2023-06-05T03:25:53;9.30;99.90
39347;DHT22;26262;49.836;6.632;2023-06-05T03:28:20;9.30;99.90
39347;DHT22;26262;49.836;6.632;2023-06-05T03:30:46;9.30;99.90
39347;DHT22;26262;49.836;6.632;2023-06-05T03:33:12;9.30;99.90
39347;DHT22;26262;49.836;6.632;2023-06-05T03:35:39;9.30;99.90
39347;DHT22;26262;49.836;6.632;2023-06-05T03:38:05;8.90;99.90
39347;DHT22;26262;49.836;6.632;2023-06-05T03:40:31;9.00;99.90
39347;DHT22;26262;49.836;6.632;2023-06-05T03:42:57;8.90;99.90
39347;DHT22;26262;49.836;6.632;2023-06-05T03:45:22;9.00;99.90
39347;DHT22;26262;49.836;6.632;2023-06-05T03:47:48;9.10;99.90
39347;DHT22;26262;49.836;6.632;2023-06-05T03:50:14;9.10;99.90
39347;DHT22;26262;49.836;6.632;2023-06-05T03:52:41;9.10;99.90
39347;DHT22;26262;49.836;6.632;2023-06-05T03:55:08;9.20;99.90
39347;DHT22;26262;49.836;6.632;2023-06-05T03:57:34;9.20;99.90
39347;DHT22;26262;49.836;6.632;2023-06-05T04:00:00;8.90;99.90
39347;DHT22;26262;49.836;6.632;2023-06-05T04:02:26;8.90;99.90
39347;DHT22;26262;49.836;6.632;2023-06-05T04:04:51;8.90;99.90
39347;DHT22;26262;49.836;6.632;2023-06-05T04:07:17;8.80;99.90
39347;DHT22;26262;49.836;6.632;2023-06-05T04:09:42;8.60;99.90
39347;DHT22;26262;49.836;6.632;2023-06-05T04:12:08;8.80;99.90
39347;DHT22;26262;49.836;6.632;2023-06-05T04:14:39;8.90;99.90
39347;DHT22;26262;49.836;6.632;2023-06-05T04:17:04;9.00;99.90
39347;DHT22;26262;49.836;6.632;2023-06-05T04:19:30;9.10;99.90
39347;DHT22;26262;49.836;6.632;2023-06-05T04:21:55;8.90;99.90
39347;DHT22;26262;49.836;6.632;2023-06-05T04:24:21;8.90;99.90
39347;DHT22;26262;49.836;6.632;2023-06-05T04:26:47;8.80;99.90
39347;DHT22;26262;49.836;6.632;2023-06-05T04:29:13;8.70;99.90
39347;DHT22;26262;49.836;6.632;2023-06-05T04:31:44;8.80;99.90
39347;DHT22;26262;49.836;6.632;2023-06-05T04:34:10;9.00;99.90
39347;DHT22;26262;49.836;6.632;2023-06-05T04:36:36;9.10;99.90
39347;DHT22;26262;49.836;6.632;2023-06-05T04:39:02;9.20;99.90
39347;DHT22;26262;49.836;6.632;2023-06-05T04:41:32;9.10;99.90
39347;DHT22;26262;49.836;6.632;2023-06-05T04:43:58;8.70;99.90
39347;DHT22;26262;49.836;6.632;2023-06-05T04:46:25;8.90;99.90
39347;DHT22;26262;49.836;6.632;2023-06-05T04:48:51;9.10;99.90
39347;DHT22;26262;49.836;6.632;2023-06-05T04:51:21;9.20;99.90
39347;DHT22;26262;49.836;6.632;2023-06-05T04:53:47;9.30;99.90
39347;DHT22;26262;49.836;6.632;2023-06-05T04:56:18;9.40;99.90
39347;DHT22;26262;49.836;6.632;2023-06-05T04:58:44;9.50;99.90
39347;DHT22;26262;49.836;6.632;2023-06-05T05:01:09;9.60;99.90
39347;DHT22;26262;49.836;6.632;2023-06-05T05:03:36;9.60;99.90
39347;DHT22;26262;49.836;6.632;2023-06-05T05:06:02;9.70;99.90
39347;DHT22;26262;49.836;6.632;2023-06-05T05:08:28;9.80;99.90
39347;DHT22;26262;49.836;6.632;2023-06-05T05:10:53;9.90;99.90
39347;DHT22;26262;49.836;6.632;2023-06-05T05:13:19;9.90;99.90
39347;DHT22;26262;49.836;6.632;2023-06-05T05:15:44;10.00;99.90
39347;DHT22;26262;49.836;6.632;2023-06-05T05:18:10;10.00;99.90
39347;DHT22;26262;49.836;6.632;2023-06-05T05:20:36;10.20;99.90
39347;DHT22;26262;49.836;6.632;2023-06-05T05:23:01;10.30;99.90
39347;DHT22;26262;49.836;6.632;2023-06-05T05:25:27;10.40;99.90
39347;DHT22;26262;49.836;6.632;2023-06-05T05:27:53;10.40;99.90
39347;DHT22;26262;49.836;6.632;2023-06-05T05:30:19;10.60;99.90
39347;DHT22;26262;49.836;6.632;2023-06-05T05:32:44;10.50;99.90
39347;DHT22;26262;49.836;6.632;2023-06-05T05:35:10;10.70;99.90
39347;DHT22;26262;49.836;6.632;2023-06-05T05:37:35;10.80;99.90
39347;DHT22;26262;49.836;6.632;2023-06-05T05:40:01;10.80;99.90
39347;DHT22;26262;49.836;6.632;2023-06-05T05:42:28;11.00;99.90
39347;DHT22;26262;49.836;6.632;2023-06-05T05:44:54;11.00;99.90
39347;DHT22;26262;49.836;6.632;2023-06-05T05:47:19;11.10;99.90
39347;DHT22;26262;49.836;6.632;2023-06-05T05:49:45;11.20;99.90
39347;DHT22;26262;49.836;6.632;2023-06-05T05:52:11;11.30;99.90
39347;DHT22;26262;49.836;6.632;2023-06-05T05:54:36;11.50;99.90
39347;DHT22;26262;49.836;6.632;2023-06-05T05:57:02;11.40;99.90
39347;DHT22;26262;49.836;6.632;2023-06-05T05:59:29;11.50;99.90
39347;DHT22;26262;49.836;6.632;2023-06-05T06:01:54;11.40;99.90
39347;DHT22;26262;49.836;6.632;2023-06-05T06:04:23;11.40;99.90
39347;DHT22;26262;49.836;6.632;2023-06-05T06:06:49;11.60;99.90
39347;DHT22;26262;49.836;6.632;2023-06-05T06:09:17;11.70;99.90
39347;DHT22;26262;49.836;6.632;2023-06-05T06:11:44;11.90;99.90
39347;DHT22;26262;49.836;6.632;2023-06-05T06:14:09;12.10;99.90
39347;DHT22;26262;49.836;6.632;2023-06-05T06:16:39;12.20;99.90
39347;DHT22;26262;49.836;6.632;2023-06-05T06:19:05;12.40;99.90
39347;DHT22;26262;49.836;6.632;2023-06-05T06:21:31;12.50;99.90
39347;DHT22;26262;49.836;6.632;2023-06-05T06:23:57;12.50;99.90
39347;DHT22;26262;49.836;6.632;2023-06-05T06:26:23;12.60;99.90
39347;DHT22;26262;49.836;6.632;2023-06-05T06:28:48;12.60;99.90
39347;DHT22;26262;49.836;6.632;2023-06-05T06:31:14;12.80;99.90
39347;DHT22;26262;49.836;6.632;2023-06-05T06:33:40;12.90;99.90
39347;DHT22;26262;49.836;6.632;2023-06-05T06:36:06;13.10;99.90
39347;DHT22;26262;49.836;6.632;2023-06-05T06:38:31;13.30;99.90
39347;DHT22;26262;49.836;6.632;2023-06-05T06:40:58;13.50;99.90
39347;DHT22;26262;49.836;6.632;2023-06-05T06:43:24;13.60;99.90
39347;DHT22;26262;49.836;6.632;2023-06-05T06:45:49;13.80;99.90
39347;DHT22;26262;49.836;6.632;2023-06-05T06:48:16;14.00;99.90
39347;DHT22;26262;49.836;6.632;2023-06-05T06:50:45;14.20;99.90
39347;DHT22;26262;49.836;6.632;2023-06-05T06:53:11;14.20;99.90
39347;DHT22;26262;49.836;6.632;2023-06-05T06:55:37;14.30;99.90
39347;DHT22;26262;49.836;6.632;2023-06-05T06:58:03;14.60;99.90
39347;DHT22;26262;49.836;6.632;2023-06-05T07:00:28;14.70;99.90
39347;DHT22;26262;49.836;6.632;2023-06-05T07:02:54;14.90;99.90
39347;DHT22;26262;49.836;6.632;2023-06-05T07:05:20;15.10;99.90
39347;DHT22;26262;49.836;6.632;2023-06-05T07:07:46;15.40;99.90
39347;DHT22;26262;49.836;6.632;2023-06-05T07:10:12;15.50;99.90
39347;DHT22;26262;49.836;6.632;2023-06-05T07:12:37;15.70;99.90
39347;DHT22;26262;49.836;6.632;2023-06-05T07:15:03;16.00;99.90
39347;DHT22;26262;49.836;6.632;2023-06-05T07:17:29;16.30;99.30
39347;DHT22;26262;49.836;6.632;2023-06-05T07:19:56;16.40;99.80
39347;DHT22;26262;49.836;6.632;2023-06-05T07:22:22;16.60;99.80
39347;DHT22;26262;49.836;6.632;2023-06-05T07:24:49;16.90;98.20
39347;DHT22;26262;49.836;6.632;2023-06-05T07:27:16;17.20;96.20
39347;DHT22;26262;49.836;6.632;2023-06-05T07:29:41;17.30;96.70
39347;DHT22;26262;49.836;6.632;2023-06-05T07:32:07;17.40;96.50
39347;DHT22;26262;49.836;6.632;2023-06-05T07:34:32;17.60;96.70
39347;DHT22;26262;49.836;6.632;2023-06-05T07:36:59;17.80;96.20
39347;DHT22;26262;49.836;6.632;2023-06-05T07:39:25;17.90;95.00
39347;DHT22;26262;49.836;6.632;2023-06-05T07:41:50;18.10;94.60
39347;DHT22;26262;49.836;6.632;2023-06-05T07:44:18;18.10;94.80
39347;DHT22;26262;49.836;6.632;2023-06-05T07:46:44;18.20;93.60
39347;DHT22;26262;49.836;6.632;2023-06-05T07:49:10;18.40;94.20
39347;DHT22;26262;49.836;6.632;2023-06-05T07:51:36;18.60;94.50
39347;DHT22;26262;49.836;6.632;2023-06-05T07:54:06;18.70;93.00
39347;DHT22;26262;49.836;6.632;2023-06-05T07:56:32;18.90;92.80
39347;DHT22;26262;49.836;6.632;2023-06-05T07:59:01;19.00;93.00
39347;DHT22;26262;49.836;6.632;2023-06-05T08:01:29;19.10;92.70
39347;DHT22;26262;49.836;6.632;2023-06-05T08:03:55;19.30;92.00
39347;DHT22;26262;49.836;6.632;2023-06-05T08:06:21;19.40;91.20
39347;DHT22;26262;49.836;6.632;2023-06-05T08:08:46;19.60;92.00
39347;DHT22;26262;49.836;6.632;2023-06-05T08:11:12;19.80;91.60
39347;DHT22;26262;49.836;6.632;2023-06-05T08:13:37;19.80;90.50
39347;DHT22;26262;49.836;6.632;2023-06-05T08:16:04;19.90;90.30
39347;DHT22;26262;49.836;6.632;2023-06-05T08:18:29;20.10;91.40
39347;DHT22;26262;49.836;6.632;2023-06-05T08:20:55;20.20;89.60
39347;DHT22;26262;49.836;6.632;2023-06-05T08:23:21;20.40;88.60
39347;DHT22;26262;49.836;6.632;2023-06-05T08:25:46;20.50;90.40
39347;DHT22;26262;49.836;6.632;2023-06-05T08:28:14;20.70;88.60
39347;DHT22;26262;49.836;6.632;2023-06-05T08:30:41;20.90;90.50
39347;DHT22;26262;49.836;6.632;2023-06-05T08:33:06;20.90;86.30
39347;DHT22;26262;49.836;6.632;2023-06-05T08:35:32;21.00;85.30
39347;DHT22;26262;49.836;6.632;2023-06-05T08:37:57;21.20;86.90
39347;DHT22;26262;49.836;6.632;2023-06-05T08:40:27;21.30;86.20
39347;DHT22;26262;49.836;6.632;2023-06-05T08:42:54;21.40;85.30
39347;DHT22;26262;49.836;6.632;2023-06-05T08:45:19;21.60;86.30
39347;DHT22;26262;49.836;6.632;2023-06-05T08:47:49;21.70;86.30
39347;DHT22;26262;49.836;6.632;2023-06-05T08:50:16;21.90;83.70
39347;DHT22;26262;49.836;6.632;2023-06-05T08:52:43;22.10;85.70
39347;DHT22;26262;49.836;6.632;2023-06-05T08:55:09;22.10;82.20
39347;DHT22;26262;49.836;6.632;2023-06-05T08:57:38;22.20;80.00
39347;DHT22;26262;49.836;6.632;2023-06-05T09:00:06;22.40;81.70
39347;DHT22;26262;49.836;6.632;2023-06-05T09:02:41;22.60;81.90
39347;DHT22;26262;49.836;6.632;2023-06-05T09:05:14;22.60;77.30
39347;DHT22;26262;49.836;6.632;2023-06-05T09:07:40;22.70;79.10
39347;DHT22;26262;49.836;6.632;2023-06-05T09:10:07;22.70;78.30
39347;DHT22;26262;49.836;6.632;2023-06-05T09:12:53;23.00;77.40
39347;DHT22;26262;49.836;6.632;2023-06-05T09:15:23;23.10;74.90
39347;DHT22;26262;49.836;6.632;2023-06-05T09:20:27;23.30;75.00
39347;DHT22;26262;49.836;6.632;2023-06-05T09:22:54;23.50;77.50
39347;DHT22;26262;49.836;6.632;2023-06-05T09:25:20;23.50;76.30
39347;DHT22;26262;49.836;6.632;2023-06-05T09:28:05;23.40;74.10
39347;DHT22;26262;49.836;6.632;2023-06-05T09:30:31;23.60;76.70
39347;DHT22;26262;49.836;6.632;2023-06-05T09:33:08;23.90;74.80
39347;DHT22;26262;49.836;6.632;2023-06-05T09:35:34;24.10;72.20
39347;DHT22;26262;49.836;6.632;2023-06-05T09:38:05;24.20;74.50
39347;DHT22;26262;49.836;6.632;2023-06-05T09:40:49;24.60;73.60
39347;DHT22;26262;49.836;6.632;2023-06-05T09:43:21;24.50;71.30
39347;DHT22;26262;49.836;6.632;2023-06-05T09:45:50;24.60;71.00
39347;DHT22;26262;49.836;6.632;2023-06-05T09:48:16;24.70;75.30
39347;DHT22;26262;49.836;6.632;2023-06-05T09:50:41;24.70;73.70
39347;DHT22;26262;49.836;6.632;2023-06-05T09:53:09;24.80;75.30
39347;DHT22;26262;49.836;6.632;2023-06-05T09:55:36;25.00;70.10
39347;DHT22;26262;49.836;6.632;2023-06-05T09:58:04;25.40;70.70
39347;DHT22;26262;49.836;6.632;2023-06-05T10:00:38;25.70;69.60
39347;DHT22;26262;49.836;6.632;2023-06-05T10:03:13;25.70;69.70
39347;DHT22;26262;49.836;6.632;2023-06-05T10:05:40;26.20;69.80
39347;DHT22;26262;49.836;6.632;2023-06-05T10:08:06;26.40;69.40
39347;DHT22;26262;49.836;6.632;2023-06-05T10:10:33;26.50;71.40
39347;DHT22;26262;49.836;6.632;2023-06-05T10:13:00;26.70;67.40
39347;DHT22;26262;49.836;6.632;2023-06-05T10:15:26;26.80;72.50
39347;DHT22;26262;49.836;6.632;2023-06-05T10:17:53;27.00;66.60
39347;DHT22;26262;49.836;6.632;2023-06-05T10:20:21;27.00;67.90
39347;DHT22;26262;49.836;6.632;2023-06-05T10:22:47;27.20;64.70
39347;DHT22;26262;49.836;6.632;2023-06-05T10:25:15;27.20;65.10
39347;DHT22;26262;49.836;6.632;2023-06-05T10:31:18;27.10;65.30
39347;DHT22;26262;49.836;6.632;2023-06-05T10:39:18;27.70;63.40
39347;DHT22;26262;49.836;6.632;2023-06-05T10:41:44;27.90;62.40
39347;DHT22;26262;49.836;6.632;2023-06-05T10:44:10;28.10;63.90
39347;DHT22;26262;49.836;6.632;2023-06-05T10:46:36;28.20;62.10
39347;DHT22;26262;49.836;6.632;2023-06-05T10:51:41;28.60;60.50
39347;DHT22;26262;49.836;6.632;2023-06-05T10:54:53;28.80;63.00
39347;DHT22;26262;49.836;6.632;2023-06-05T10:57:04;29.00;62.00
39347;DHT22;26262;49.836;6.632;2023-06-05T10:59:36;29.10;59.20
39347;DHT22;26262;49.836;6.632;2023-06-05T11:07:23;28.20;57.90
39347;DHT22;26262;49.836;6.632;2023-06-05T11:17:37;29.20;61.70
39347;DHT22;26262;49.836;6.632;2023-06-05T11:20:04;29.50;60.70
39347;DHT22;26262;49.836;6.632;2023-06-05T11:28:00;29.40;59.40
39347;DHT22;26262;49.836;6.632;2023-06-05T11:30:43;29.80;58.70
39347;DHT22;26262;49.836;6.632;2023-06-05T11:33:10;29.80;57.20
39347;DHT22;26262;49.836;6.632;2023-06-05T11:35:38;30.00;58.60
39347;DHT22;26262;49.836;6.632;2023-06-05T11:38:18;30.10;57.40
39347;DHT22;26262;49.836;6.632;2023-06-05T11:40:44;30.20;58.20
39347;DHT22;26262;49.836;6.632;2023-06-05T11:43:12;30.30;57.80
39347;DHT22;26262;49.836;6.632;2023-06-05T11:45:40;30.10;56.80
39347;DHT22;26262;49.836;6.632;2023-06-05T11:48:10;30.40;55.00
39347;DHT22;26262;49.836;6.632;2023-06-05T11:50:37;30.70;54.60
39347;DHT22;26262;49.836;6.632;2023-06-05T11:53:04;30.90;53.90
39347;DHT22;26262;49.836;6.632;2023-06-05T11:55:31;31.20;53.80
39347;DHT22;26262;49.836;6.632;2023-06-05T11:58:34;31.00;52.30
39347;DHT22;26262;49.836;6.632;2023-06-05T12:03:29;31.20;54.30
39347;DHT22;26262;49.836;6.632;2023-06-05T12:05:55;31.30;53.70
39347;DHT22;26262;49.836;6.632;2023-06-05T12:08:22;31.60;54.60
39347;DHT22;26262;49.836;6.632;2023-06-05T12:10:48;31.70;53.70
39347;DHT22;26262;49.836;6.632;2023-06-05T12:13:13;31.60;56.40
39347;DHT22;26262;49.836;6.632;2023-06-05T12:15:40;31.90;52.90
39347;DHT22;26262;49.836;6.632;2023-06-05T12:18:05;31.80;52.20
39347;DHT22;26262;49.836;6.632;2023-06-05T12:20:38;31.90;52.70
39347;DHT22;26262;49.836;6.632;2023-06-05T12:23:05;31.90;51.70
39347;DHT22;26262;49.836;6.632;2023-06-05T12:25:31;31.60;53.90
39347;DHT22;26262;49.836;6.632;2023-06-05T12:27:56;31.90;52.50
39347;DHT22;26262;49.836;6.632;2023-06-05T12:30:22;31.70;53.30
39347;DHT22;26262;49.836;6.632;2023-06-05T12:32:47;30.90;52.80
39347;DHT22;26262;49.836;6.632;2023-06-05T12:35:21;31.30;52.70
39347;DHT22;26262;49.836;6.632;2023-06-05T12:37:48;31.60;53.20
39347;DHT22;26262;49.836;6.632;2023-06-05T12:40:14;31.80;51.30
39347;DHT22;26262;49.836;6.632;2023-06-05T12:42:42;31.90;51.60
39347;DHT22;26262;49.836;6.632;2023-06-05T12:45:09;32.00;53.70
39347;DHT22;26262;49.836;6.632;2023-06-05T12:47:36;31.90;51.30
39347;DHT22;26262;49.836;6.632;2023-06-05T12:50:03;31.90;51.70
39347;DHT22;26262;49.836;6.632;2023-06-05T12:52:30;32.10;51.20
39347;DHT22;26262;49.836;6.632;2023-06-05T12:54:56;31.30;50.60
39347;DHT22;26262;49.836;6.632;2023-06-05T12:57:23;31.20;50.40
39347;DHT22;26262;49.836;6.632;2023-06-05T12:59:49;31.40;50.30
39347;DHT22;26262;49.836;6.632;2023-06-05T13:02:15;31.40;49.30
39347;DHT22;26262;49.836;6.632;2023-06-05T13:04:41;31.70;49.50
39347;DHT22;26262;49.836;6.632;2023-06-05T13:07:07;31.70;50.60
39347;DHT22;26262;49.836;6.632;2023-06-05T13:09:33;31.70;53.60
39347;DHT22;26262;49.836;6.632;2023-06-05T13:11:59;31.40;50.50
39347;DHT22;26262;49.836;6.632;2023-06-05T13:14:25;30.80;52.00
39347;DHT22;26262;49.836;6.632;2023-06-05T13:16:51;30.50;51.50
39347;DHT22;26262;49.836;6.632;2023-06-05T13:19:17;31.20;50.50
39347;DHT22;26262;49.836;6.632;2023-06-05T13:21:42;31.60;51.60
39347;DHT22;26262;49.836;6.632;2023-06-05T13:24:08;31.40;49.80
39347;DHT22;26262;49.836;6.632;2023-06-05T13:26:33;31.40;51.20
39347;DHT22;26262;49.836;6.632;2023-06-05T13:28:59;31.80;50.60
39347;DHT22;26262;49.836;6.632;2023-06-05T13:31:25;32.10;52.10
39347;DHT22;26262;49.836;6.632;2023-06-05T13:33:50;31.90;51.40
39347;DHT22;26262;49.836;6.632;2023-06-05T13:36:16;32.20;50.00
39347;DHT22;26262;49.836;6.632;2023-06-05T13:38:42;32.30;50.70
39347;DHT22;26262;49.836;6.632;2023-06-05T13:41:08;32.30;49.60
39347;DHT22;26262;49.836;6.632;2023-06-05T13:43:34;32.10;50.70
39347;DHT22;26262;49.836;6.632;2023-06-05T13:46:00;32.10;49.90
39347;DHT22;26262;49.836;6.632;2023-06-05T13:48:26;31.90;48.60
39347;DHT22;26262;49.836;6.632;2023-06-05T13:50:51;31.40;48.70
39347;DHT22;26262;49.836;6.632;2023-06-05T13:53:18;31.70;50.30
39347;DHT22;26262;49.836;6.632;2023-06-05T13:55:43;32.10;50.10
39347;DHT22;26262;49.836;6.632;2023-06-05T13:58:09;31.50;50.60
39347;DHT22;26262;49.836;6.632;2023-06-05T14:00:35;31.10;49.50
39347;DHT22;26262;49.836;6.632;2023-06-05T14:03:01;31.10;51.80
39347;DHT22;26262;49.836;6.632;2023-06-05T14:05:26;31.60;50.70
39347;DHT22;26262;49.836;6.632;2023-06-05T14:07:52;31.70;49.80
39347;DHT22;26262;49.836;6.632;2023-06-05T14:10:20;31.90;50.70
39347;DHT22;26262;49.836;6.632;2023-06-05T14:12:46;32.30;50.60
39347;DHT22;26262;49.836;6.632;2023-06-05T14:15:12;32.30;50.50
39347;DHT22;26262;49.836;6.632;2023-06-05T14:17:37;32.40;50.40
39347;DHT22;26262;49.836;6.632;2023-06-05T14:20:03;31.60;49.70
39347;DHT22;26262;49.836;6.632;2023-06-05T14:22:29;31.10;52.50
39347;DHT22;26262;49.836;6.632;2023-06-05T14:24:55;30.90;51.80
39347;DHT22;26262;49.836;6.632;2023-06-05T14:27:20;30.40;49.70
39347;DHT22;26262;49.836;6.632;2023-06-05T14:29:47;30.40;53.40
39347;DHT22;26262;49.836;6.632;2023-06-05T14:32:12;31.00;50.90
39347;DHT22;26262;49.836;6.632;2023-06-05T14:34:38;31.20;51.40
39347;DHT22;26262;49.836;6.632;2023-06-05T14:37:03;31.30;50.20
39347;DHT22;26262;49.836;6.632;2023-06-05T14:39:29;31.10;50.90
39347;DHT22;26262;49.836;6.632;2023-06-05T14:41:54;31.20;51.40
39347;DHT22;26262;49.836;6.632;2023-06-05T14:44:20;31.50;51.20
39347;DHT22;26262;49.836;6.632;2023-06-05T14:46:45;31.40;48.30
39347;DHT22;26262;49.836;6.632;2023-06-05T14:49:12;30.80;50.20
39347;DHT22;26262;49.836;6.632;2023-06-05T14:51:38;30.60;50.40
39347;DHT22;26262;49.836;6.632;2023-06-05T14:54:04;30.00;50.60
39347;DHT22;26262;49.836;6.632;2023-06-05T14:56:29;29.90;51.30
39347;DHT22;26262;49.836;6.632;2023-06-05T14:58:55;29.80;53.00
39347;DHT22;26262;49.836;6.632;2023-06-05T15:01:21;29.30;55.00
39347;DHT22;26262;49.836;6.632;2023-06-05T15:03:46;29.30;54.50
39347;DHT22;26262;49.836;6.632;2023-06-05T15:06:12;29.60;52.40
39347;DHT22;26262;49.836;6.632;2023-06-05T15:08:38;29.40;53.20
39347;DHT22;26262;49.836;6.632;2023-06-05T15:11:04;29.40;52.80
39347;DHT22;26262;49.836;6.632;2023-06-05T15:13:29;29.40;51.60
39347;DHT22;26262;49.836;6.632;2023-06-05T15:15:55;29.30;52.30
39347;DHT22;26262;49.836;6.632;2023-06-05T15:18:21;29.70;51.50
39347;DHT22;26262;49.836;6.632;2023-06-05T15:20:46;29.90;52.40
39347;DHT22;26262;49.836;6.632;2023-06-05T15:23:12;30.10;51.90
39347;DHT22;26262;49.836;6.632;2023-06-05T15:25:37;30.10;51.70
39347;DHT22;26262;49.836;6.632;2023-06-05T15:28:03;30.20;50.20
39347;DHT22;26262;49.836;6.632;2023-06-05T15:30:28;30.10;50.40
39347;DHT22;26262;49.836;6.632;2023-06-05T15:32:54;29.20;49.90
39347;DHT22;26262;49.836;6.632;2023-06-05T15:35:19;29.30;52.20
39347;DHT22;26262;49.836;6.632;2023-06-05T15:37:45;29.40;51.10
39347;DHT22;26262;49.836;6.632;2023-06-05T15:40:11;29.10;51.00
39347;DHT22;26262;49.836;6.632;2023-06-05T15:42:37;29.00;52.30
39347;DHT22;26262;49.836;6.632;2023-06-05T15:45:13;29.20;52.10
39347;DHT22;26262;49.836;6.632;2023-06-05T15:47:41;29.40;53.40
39347;DHT22;26262;49.836;6.632;2023-06-05T15:50:07;29.30;52.20
39347;DHT22;26262;49.836;6.632;2023-06-05T15:52:35;29.20;53.20
39347;DHT22;26262;49.836;6.632;2023-06-05T15:55:01;29.30;52.00
39347;DHT22;26262;49.836;6.632;2023-06-05T15:57:26;28.50;51.20
39347;DHT22;26262;49.836;6.632;2023-06-05T15:59:52;28.10;52.80
39347;DHT22;26262;49.836;6.632;2023-06-05T16:02:19;27.90;53.40
39347;DHT22;26262;49.836;6.632;2023-06-05T16:04:44;28.10;53.30
39347;DHT22;26262;49.836;6.632;2023-06-05T16:07:10;27.60;55.20
39347;DHT22;26262;49.836;6.632;2023-06-05T16:09:36;27.90;52.70
39347;DHT22;26262;49.836;6.632;2023-06-05T16:12:02;28.00;51.40
39347;DHT22;26262;49.836;6.632;2023-06-05T16:14:27;28.20;51.80